sensor_id;sensor_type;location;lat;lon;timestamp;P1;durP1;ratioP1;P2;durP2;ratioP2
75038;SDS011;63609;49.992;14.512;2023-03-11T09:08:41;3.97;;;1.80;;
75038;SDS011;63609;49.992;14.512;2023-03-11T09:11:16;3.80;;;1.30;;
75038;SDS011;63609;49.992;14.512;2023-03-11T09:13:44;2.97;;;1.63;;
75038;SDS011;63609;49.992;14.512;2023-03-11T09:16:12;5.55;;;1.80;;
75038;SDS011;63609;49.992;14.512;2023-03-11T09:18:41;3.03;;;1.63;;
75038;SDS011;63609;49.992;14.512;2023-03-11T09:21:08;2.15;;;1.05;;
75038;SDS011;63609;49.992;14.512;2023-03-11T09:23:38;2.65;;;1.50;;
75038;SDS011;63609;49.992;14.512;2023-03-11T09:26:10;2.35;;;1.30;;
75038;SDS011;63609;49.992;14.512;2023-03-11T09:28:38;2.00;;;1.13;;
75038;SDS011;63609;49.992;14.512;2023-03-11T09:31:06;3.03;;;1.55;;
75038;SDS011;63609;49.992;14.512;2023-03-11T09:33:40;3.95;;;1.58;;
75038;SDS011;63609;49.992;14.512;2023-03-11T09:36:11;2.95;;;1.50;;
75038;SDS011;63609;49.992;14.512;2023-03-11T09:38:39;2.70;;;1.38;;
75038;SDS011;63609;49.992;14.512;2023-03-11T09:41:12;3.85;;;1.60;;
75038;SDS011;63609;49.992;14.512;2023-03-11T09:52:09;2.20;;;1.40;;
75038;SDS011;63609;49.992;14.512;2023-03-11T09:54:41;3.30;;;1.58;;
75038;SDS011;63609;49.992;14.512;2023-03-11T09:57:20;4.63;;;2.22;;
75038;SDS011;63609;49.992;14.512;2023-03-11T09:59:50;3.30;;;1.90;;
75038;SDS011;63609;49.992;14.512;2023-03-11T10:02:19;2.30;;;1.38;;
75038;SDS011;63609;49.992;14.512;2023-03-11T10:04:59;5.07;;;2.15;;
75038;SDS011;63609;49.992;14.512;2023-03-11T10:07:35;3.53;;;1.83;;
75038;SDS011;63609;49.992;14.512;2023-03-11T10:10:14;2.75;;;1.73;;
75038;SDS011;63609;49.992;14.512;2023-03-11T10:18:35;3.22;;;1.70;;
75038;SDS011;63609;49.992;14.512;2023-03-11T10:27:01;3.13;;;1.40;;
75038;SDS011;63609;49.992;14.512;2023-03-11T10:35:17;3.55;;;1.60;;
75038;SDS011;63609;49.992;14.512;2023-03-11T10:40:42;2.97;;;1.60;;
75038;SDS011;63609;49.992;14.512;2023-03-11T10:43:12;3.42;;;1.75;;
75038;SDS011;63609;49.992;14.512;2023-03-11T10:45:42;5.20;;;1.85;;
75038;SDS011;63609;49.992;14.512;2023-03-11T10:48:12;3.90;;;2.00;;
75038;SDS011;63609;49.992;14.512;2023-03-11T10:53:45;3.15;;;2.22;;
75038;SDS011;63609;49.992;14.512;2023-03-11T10:56:29;4.25;;;2.35;;
75038;SDS011;63609;49.992;14.512;2023-03-11T10:59:02;3.50;;;1.95;;
75038;SDS011;63609;49.992;14.512;2023-03-11T11:01:32;3.13;;;1.73;;
75038;SDS011;63609;49.992;14.512;2023-03-11T11:03:59;4.13;;;2.30;;
75038;SDS011;63609;49.992;14.512;2023-03-11T11:06:28;3.33;;;2.08;;
75038;SDS011;63609;49.992;14.512;2023-03-11T11:12:00;3.13;;;1.88;;
75038;SDS011;63609;49.992;14.512;2023-03-11T11:14:48;5.30;;;2.33;;
75038;SDS011;63609;49.992;14.512;2023-03-11T11:17:28;3.15;;;1.60;;
75038;SDS011;63609;49.992;14.512;2023-03-11T11:20:00;1.98;;;1.23;;
75038;SDS011;63609;49.992;14.512;2023-03-11T11:22:38;4.70;;;2.10;;
75038;SDS011;63609;49.992;14.512;2023-03-11T11:25:25;3.63;;;1.95;;
75038;SDS011;63609;49.992;14.512;2023-03-11T11:27:59;2.88;;;1.70;;
75038;SDS011;63609;49.992;14.512;2023-03-11T11:30:28;3.83;;;2.33;;
75038;SDS011;63609;49.992;14.512;2023-03-11T11:32:55;4.15;;;1.90;;
75038;SDS011;63609;49.992;14.512;2023-03-11T11:35:47;2.83;;;1.42;;
75038;SDS011;63609;49.992;14.512;2023-03-11T11:38:20;2.45;;;1.85;;
75038;SDS011;63609;49.992;14.512;2023-03-11T11:40:50;3.15;;;1.60;;
75038;SDS011;63609;49.992;14.512;2023-03-11T11:43:20;3.85;;;1.67;;
75038;SDS011;63609;49.992;14.512;2023-03-11T11:45:59;3.03;;;1.73;;
75038;SDS011;63609;49.992;14.512;2023-03-11T11:51:37;4.07;;;2.33;;
75038;SDS011;63609;49.992;14.512;2023-03-11T11:57:13;4.93;;;2.67;;
75038;SDS011;63609;49.992;14.512;2023-03-11T11:59:42;4.25;;;2.38;;
75038;SDS011;63609;49.992;14.512;2023-03-11T12:10:30;3.70;;;2.53;;
75038;SDS011;63609;49.992;14.512;2023-03-11T12:21:51;5.57;;;1.98;;
75038;SDS011;63609;49.992;14.512;2023-03-11T12:27:24;3.47;;;1.38;;
75038;SDS011;63609;49.992;14.512;2023-03-11T12:30:09;3.13;;;1.40;;
75038;SDS011;63609;49.992;14.512;2023-03-11T12:32:52;3.22;;;1.90;;
75038;SDS011;63609;49.992;14.512;2023-03-11T12:35:25;4.78;;;2.40;;
75038;SDS011;63609;49.992;14.512;2023-03-11T12:37:59;5.28;;;2.47;;
75038;SDS011;63609;49.992;14.512;2023-03-11T12:46:05;3.85;;;2.25;;
75038;SDS011;63609;49.992;14.512;2023-03-11T12:53:53;4.93;;;2.15;;
75038;SDS011;63609;49.992;14.512;2023-03-11T13:01:52;3.90;;;1.95;;
75038;SDS011;63609;49.992;14.512;2023-03-11T13:05:14;4.38;;;2.03;;
75038;SDS011;63609;49.992;14.512;2023-03-11T13:07:38;8.02;;;2.35;;
75038;SDS011;63609;49.992;14.512;2023-03-11T13:25:41;4.18;;;2.20;;
75038;SDS011;63609;49.992;14.512;2023-03-11T13:33:32;3.85;;;2.20;;
75038;SDS011;63609;49.992;14.512;2023-03-11T13:41:35;3.17;;;1.48;;
75038;SDS011;63609;49.992;14.512;2023-03-11T13:44:32;3.60;;;2.38;;
75038;SDS011;63609;49.992;14.512;2023-03-11T13:47:12;5.40;;;3.05;;
75038;SDS011;63609;49.992;14.512;2023-03-11T13:52:32;3.75;;;2.20;;
75038;SDS011;63609;49.992;14.512;2023-03-11T13:55:22;3.17;;;2.17;;
75038;SDS011;63609;49.992;14.512;2023-03-11T13:57:56;3.90;;;2.15;;
75038;SDS011;63609;49.992;14.512;2023-03-11T14:00:25;4.38;;;2.45;;
75038;SDS011;63609;49.992;14.512;2023-03-11T14:02:57;2.75;;;2.00;;
75038;SDS011;63609;49.992;14.512;2023-03-11T14:05:35;5.78;;;2.33;;
75038;SDS011;63609;49.992;14.512;2023-03-11T14:08:12;2.50;;;1.52;;
75038;SDS011;63609;49.992;14.512;2023-03-11T14:10:53;4.53;;;2.45;;
75038;SDS011;63609;49.992;14.512;2023-03-11T14:13:23;4.50;;;2.10;;
75038;SDS011;63609;49.992;14.512;2023-03-11T14:15:53;4.45;;;2.00;;
75038;SDS011;63609;49.992;14.512;2023-03-11T14:18:26;5.53;;;2.33;;
75038;SDS011;63609;49.992;14.512;2023-03-11T14:20:59;6.82;;;3.05;;
75038;SDS011;63609;49.992;14.512;2023-03-11T14:23:44;5.03;;;3.22;;
75038;SDS011;63609;49.992;14.512;2023-03-11T14:26:26;4.50;;;3.08;;
75038;SDS011;63609;49.992;14.512;2023-03-11T14:28:58;5.13;;;3.05;;
75038;SDS011;63609;49.992;14.512;2023-03-11T14:31:33;5.43;;;3.30;;
75038;SDS011;63609;49.992;14.512;2023-03-11T14:39:21;5.60;;;2.70;;
75038;SDS011;63609;49.992;14.512;2023-03-11T14:41:49;4.47;;;2.67;;
75038;SDS011;63609;49.992;14.512;2023-03-11T14:44:19;5.97;;;2.55;;
75038;SDS011;63609;49.992;14.512;2023-03-11T14:46:48;6.43;;;2.38;;
75038;SDS011;63609;49.992;14.512;2023-03-11T14:49:18;4.88;;;2.90;;
75038;SDS011;63609;49.992;14.512;2023-03-11T14:51:52;4.07;;;1.92;;
75038;SDS011;63609;49.992;14.512;2023-03-11T14:54:25;4.03;;;2.03;;
75038;SDS011;63609;49.992;14.512;2023-03-11T14:57:00;4.20;;;2.45;;
75038;SDS011;63609;49.992;14.512;2023-03-11T14:59:49;4.13;;;1.90;;
75038;SDS011;63609;49.992;14.512;2023-03-11T15:02:39;5.03;;;2.40;;
75038;SDS011;63609;49.992;14.512;2023-03-11T15:08:16;3.83;;;2.05;;
75038;SDS011;63609;49.992;14.512;2023-03-11T15:13:46;7.15;;;2.58;;
75038;SDS011;63609;49.992;14.512;2023-03-11T15:18:55;7.30;;;3.20;;
75038;SDS011;63609;49.992;14.512;2023-03-11T15:21:23;3.50;;;2.00;;
75038;SDS011;63609;49.992;14.512;2023-03-11T15:23:58;4.20;;;1.92;;
75038;SDS011;63609;49.992;14.512;2023-03-11T15:26:28;4.95;;;2.47;;
75038;SDS011;63609;49.992;14.512;2023-03-11T15:29:00;4.35;;;2.00;;
75038;SDS011;63609;49.992;14.512;2023-03-11T15:31:33;6.07;;;3.20;;
75038;SDS011;63609;49.992;14.512;2023-03-11T15:34:08;6.82;;;3.17;;
75038;SDS011;63609;49.992;14.512;2023-03-11T15:39:20;5.18;;;2.65;;
75038;SDS011;63609;49.992;14.512;2023-03-11T15:44:35;7.90;;;2.92;;
75038;SDS011;63609;49.992;14.512;2023-03-11T15:47:14;5.45;;;2.55;;
75038;SDS011;63609;49.992;14.512;2023-03-11T15:49:43;5.65;;;2.90;;
75038;SDS011;63609;49.992;14.512;2023-03-11T15:52:11;8.05;;;2.97;;
75038;SDS011;63609;49.992;14.512;2023-03-11T15:54:39;6.55;;;3.30;;
75038;SDS011;63609;49.992;14.512;2023-03-11T15:57:13;5.03;;;2.35;;
75038;SDS011;63609;49.992;14.512;2023-03-11T15:59:47;7.80;;;3.65;;
75038;SDS011;63609;49.992;14.512;2023-03-11T16:02:18;7.10;;;3.90;;
75038;SDS011;63609;49.992;14.512;2023-03-11T16:04:48;12.30;;;3.55;;
75038;SDS011;63609;49.992;14.512;2023-03-11T16:07:16;8.60;;;4.07;;
75038;SDS011;63609;49.992;14.512;2023-03-11T16:09:55;8.30;;;3.38;;
75038;SDS011;63609;49.992;14.512;2023-03-11T16:12:22;7.03;;;3.40;;
75038;SDS011;63609;49.992;14.512;2023-03-11T16:14:50;3.92;;;2.50;;
75038;SDS011;63609;49.992;14.512;2023-03-11T16:19:44;5.05;;;2.97;;
75038;SDS011;63609;49.992;14.512;2023-03-11T16:22:19;5.60;;;3.38;;
75038;SDS011;63609;49.992;14.512;2023-03-11T16:24:50;3.03;;;2.38;;
75038;SDS011;63609;49.992;14.512;2023-03-11T16:27:20;5.80;;;3.45;;
75038;SDS011;63609;49.992;14.512;2023-03-11T16:32:13;4.85;;;2.47;;
75038;SDS011;63609;49.992;14.512;2023-03-11T16:34:40;7.30;;;2.92;;
75038;SDS011;63609;49.992;14.512;2023-03-11T16:37:09;5.78;;;2.42;;
75038;SDS011;63609;49.992;14.512;2023-03-11T16:39:40;4.88;;;1.98;;
75038;SDS011;63609;49.992;14.512;2023-03-11T16:42:07;4.10;;;1.70;;
75038;SDS011;63609;49.992;14.512;2023-03-11T16:44:37;5.47;;;3.08;;
75038;SDS011;63609;49.992;14.512;2023-03-11T16:47:04;4.72;;;2.80;;
75038;SDS011;63609;49.992;14.512;2023-03-11T16:49:31;4.20;;;2.63;;
75038;SDS011;63609;49.992;14.512;2023-03-11T16:52:02;4.32;;;2.53;;
75038;SDS011;63609;49.992;14.512;2023-03-11T16:54:29;7.25;;;3.00;;
75038;SDS011;63609;49.992;14.512;2023-03-11T16:59:23;4.47;;;2.25;;
75038;SDS011;63609;49.992;14.512;2023-03-11T17:01:51;7.70;;;4.32;;
75038;SDS011;63609;49.992;14.512;2023-03-11T17:04:18;7.50;;;3.17;;
75038;SDS011;63609;49.992;14.512;2023-03-11T17:09:12;4.95;;;3.03;;
75038;SDS011;63609;49.992;14.512;2023-03-11T17:11:39;9.55;;;5.10;;
75038;SDS011;63609;49.992;14.512;2023-03-11T17:14:06;8.23;;;3.78;;
75038;SDS011;63609;49.992;14.512;2023-03-11T17:16:42;9.60;;;4.70;;
75038;SDS011;63609;49.992;14.512;2023-03-11T17:19:11;10.10;;;4.30;;
75038;SDS011;63609;49.992;14.512;2023-03-11T17:21:38;8.23;;;4.03;;
75038;SDS011;63609;49.992;14.512;2023-03-11T17:24:06;17.33;;;8.88;;
75038;SDS011;63609;49.992;14.512;2023-03-11T17:26:36;4.57;;;2.83;;
75038;SDS011;63609;49.992;14.512;2023-03-11T17:29:03;5.80;;;3.22;;
75038;SDS011;63609;49.992;14.512;2023-03-11T17:31:31;6.50;;;3.10;;
75038;SDS011;63609;49.992;14.512;2023-03-11T17:33:58;6.65;;;2.20;;
75038;SDS011;63609;49.992;14.512;2023-03-11T17:36:25;9.85;;;4.90;;
75038;SDS011;63609;49.992;14.512;2023-03-11T17:38:53;6.68;;;4.20;;
75038;SDS011;63609;49.992;14.512;2023-03-11T17:41:20;5.53;;;2.70;;
75038;SDS011;63609;49.992;14.512;2023-03-11T17:43:49;5.68;;;3.15;;
75038;SDS011;63609;49.992;14.512;2023-03-11T17:46:17;5.47;;;3.25;;
75038;SDS011;63609;49.992;14.512;2023-03-11T17:48:46;6.38;;;3.47;;
75038;SDS011;63609;49.992;14.512;2023-03-11T17:51:19;5.60;;;2.97;;
75038;SDS011;63609;49.992;14.512;2023-03-11T17:53:47;4.68;;;2.75;;
75038;SDS011;63609;49.992;14.512;2023-03-11T17:56:16;8.90;;;5.00;;
75038;SDS011;63609;49.992;14.512;2023-03-11T17:58:44;6.93;;;4.25;;
75038;SDS011;63609;49.992;14.512;2023-03-11T18:01:13;6.95;;;4.63;;
75038;SDS011;63609;49.992;14.512;2023-03-11T18:03:42;9.75;;;4.78;;
75038;SDS011;63609;49.992;14.512;2023-03-11T18:06:09;7.18;;;3.47;;
75038;SDS011;63609;49.992;14.512;2023-03-11T18:08:38;7.15;;;3.60;;
75038;SDS011;63609;49.992;14.512;2023-03-11T18:11:13;9.40;;;4.97;;
75038;SDS011;63609;49.992;14.512;2023-03-11T18:13:44;10.40;;;4.50;;
75038;SDS011;63609;49.992;14.512;2023-03-11T18:18:40;7.15;;;3.42;;
75038;SDS011;63609;49.992;14.512;2023-03-11T18:21:11;5.90;;;3.28;;
75038;SDS011;63609;49.992;14.512;2023-03-11T18:23:40;9.27;;;5.15;;
75038;SDS011;63609;49.992;14.512;2023-03-11T18:26:08;6.65;;;3.53;;
75038;SDS011;63609;49.992;14.512;2023-03-11T18:28:37;7.30;;;3.90;;
75038;SDS011;63609;49.992;14.512;2023-03-11T18:31:09;9.30;;;4.65;;
75038;SDS011;63609;49.992;14.512;2023-03-11T18:38:43;7.68;;;5.47;;
75038;SDS011;63609;49.992;14.512;2023-03-11T18:41:12;12.10;;;5.22;;
75038;SDS011;63609;49.992;14.512;2023-03-11T18:43:39;14.77;;;5.75;;
75038;SDS011;63609;49.992;14.512;2023-03-11T18:46:07;9.88;;;4.88;;
75038;SDS011;63609;49.992;14.512;2023-03-11T18:48:37;15.20;;;6.95;;
75038;SDS011;63609;49.992;14.512;2023-03-11T18:51:04;9.82;;;5.55;;
75038;SDS011;63609;49.992;14.512;2023-03-11T18:53:34;11.20;;;4.80;;
75038;SDS011;63609;49.992;14.512;2023-03-11T18:56:06;9.75;;;4.90;;
75038;SDS011;63609;49.992;14.512;2023-03-11T18:58:35;11.10;;;4.63;;
75038;SDS011;63609;49.992;14.512;2023-03-11T19:01:07;5.78;;;2.90;;
75038;SDS011;63609;49.992;14.512;2023-03-11T19:03:40;6.78;;;3.20;;
75038;SDS011;63609;49.992;14.512;2023-03-11T19:06:09;5.03;;;2.75;;
75038;SDS011;63609;49.992;14.512;2023-03-11T19:08:38;6.10;;;3.33;;
75038;SDS011;63609;49.992;14.512;2023-03-11T19:11:09;8.25;;;3.83;;
75038;SDS011;63609;49.992;14.512;2023-03-11T19:13:38;4.55;;;2.72;;
75038;SDS011;63609;49.992;14.512;2023-03-11T19:16:13;9.23;;;4.60;;
75038;SDS011;63609;49.992;14.512;2023-03-11T19:18:42;7.88;;;4.18;;
75038;SDS011;63609;49.992;14.512;2023-03-11T19:21:10;9.23;;;4.97;;
75038;SDS011;63609;49.992;14.512;2023-03-11T19:23:38;10.80;;;5.25;;
75038;SDS011;63609;49.992;14.512;2023-03-11T19:28:33;11.98;;;4.53;;
75038;SDS011;63609;49.992;14.512;2023-03-11T19:31:01;9.82;;;4.72;;
75038;SDS011;63609;49.992;14.512;2023-03-11T19:33:29;10.65;;;5.28;;
75038;SDS011;63609;49.992;14.512;2023-03-11T19:35:57;12.57;;;6.82;;
75038;SDS011;63609;49.992;14.512;2023-03-11T19:38:25;16.23;;;7.05;;
75038;SDS011;63609;49.992;14.512;2023-03-11T19:43:29;13.93;;;6.80;;
75038;SDS011;63609;49.992;14.512;2023-03-11T19:45:58;12.73;;;5.85;;
75038;SDS011;63609;49.992;14.512;2023-03-11T19:48:25;8.05;;;4.47;;
75038;SDS011;63609;49.992;14.512;2023-03-11T19:50:53;14.05;;;5.95;;
75038;SDS011;63609;49.992;14.512;2023-03-11T19:53:21;16.02;;;6.20;;
75038;SDS011;63609;49.992;14.512;2023-03-11T19:55:50;10.82;;;5.57;;
75038;SDS011;63609;49.992;14.512;2023-03-11T19:58:19;10.93;;;6.10;;
75038;SDS011;63609;49.992;14.512;2023-03-11T20:00:49;10.13;;;4.68;;
75038;SDS011;63609;49.992;14.512;2023-03-11T20:03:20;12.68;;;6.25;;
75038;SDS011;63609;49.992;14.512;2023-03-11T20:05:49;14.43;;;6.78;;
75038;SDS011;63609;49.992;14.512;2023-03-11T20:08:22;15.07;;;6.80;;
75038;SDS011;63609;49.992;14.512;2023-03-11T20:10:51;13.05;;;6.18;;
75038;SDS011;63609;49.992;14.512;2023-03-11T20:13:19;12.13;;;5.15;;
75038;SDS011;63609;49.992;14.512;2023-03-11T20:15:47;12.20;;;5.30;;
75038;SDS011;63609;49.992;14.512;2023-03-11T20:18:15;12.63;;;6.00;;
75038;SDS011;63609;49.992;14.512;2023-03-11T20:20:43;15.18;;;6.65;;
75038;SDS011;63609;49.992;14.512;2023-03-11T20:23:11;13.93;;;7.10;;
75038;SDS011;63609;49.992;14.512;2023-03-11T20:25:39;13.45;;;6.32;;
75038;SDS011;63609;49.992;14.512;2023-03-11T20:28:07;13.15;;;6.97;;
75038;SDS011;63609;49.992;14.512;2023-03-11T20:30:35;12.60;;;6.28;;
75038;SDS011;63609;49.992;14.512;2023-03-11T20:33:04;10.80;;;5.35;;
75038;SDS011;63609;49.992;14.512;2023-03-11T20:35:33;14.73;;;6.18;;
75038;SDS011;63609;49.992;14.512;2023-03-11T20:38:00;14.30;;;6.43;;
75038;SDS011;63609;49.992;14.512;2023-03-11T20:40:28;9.15;;;4.85;;
75038;SDS011;63609;49.992;14.512;2023-03-11T20:42:55;13.20;;;6.35;;
75038;SDS011;63609;49.992;14.512;2023-03-11T20:45:24;12.63;;;6.10;;
75038;SDS011;63609;49.992;14.512;2023-03-11T20:47:52;16.80;;;7.05;;
75038;SDS011;63609;49.992;14.512;2023-03-11T20:50:19;11.35;;;6.38;;
75038;SDS011;63609;49.992;14.512;2023-03-11T20:52:48;18.38;;;8.45;;
75038;SDS011;63609;49.992;14.512;2023-03-11T20:55:15;14.50;;;8.35;;
75038;SDS011;63609;49.992;14.512;2023-03-11T20:57:42;11.45;;;6.03;;
75038;SDS011;63609;49.992;14.512;2023-03-11T21:00:10;13.20;;;5.15;;
75038;SDS011;63609;49.992;14.512;2023-03-11T21:02:39;9.38;;;4.55;;
75038;SDS011;63609;49.992;14.512;2023-03-11T21:05:08;10.00;;;5.28;;
75038;SDS011;63609;49.992;14.512;2023-03-11T21:07:35;11.52;;;4.82;;
75038;SDS011;63609;49.992;14.512;2023-03-11T21:10:03;9.32;;;4.68;;
75038;SDS011;63609;49.992;14.512;2023-03-11T21:12:33;12.75;;;5.22;;
75038;SDS011;63609;49.992;14.512;2023-03-11T21:15:01;9.55;;;4.57;;
75038;SDS011;63609;49.992;14.512;2023-03-11T21:17:29;11.00;;;4.45;;
75038;SDS011;63609;49.992;14.512;2023-03-11T21:19:56;9.85;;;3.92;;
75038;SDS011;63609;49.992;14.512;2023-03-11T21:22:23;11.32;;;4.88;;
75038;SDS011;63609;49.992;14.512;2023-03-11T21:24:51;7.38;;;4.47;;
75038;SDS011;63609;49.992;14.512;2023-03-11T21:27:20;9.23;;;4.22;;
75038;SDS011;63609;49.992;14.512;2023-03-11T21:29:55;9.55;;;4.10;;
75038;SDS011;63609;49.992;14.512;2023-03-11T21:32:23;10.98;;;4.32;;
75038;SDS011;63609;49.992;14.512;2023-03-11T21:34:56;10.65;;;4.55;;
75038;SDS011;63609;49.992;14.512;2023-03-11T21:37:25;10.07;;;4.55;;
75038;SDS011;63609;49.992;14.512;2023-03-11T21:39:54;8.77;;;3.85;;
75038;SDS011;63609;49.992;14.512;2023-03-11T21:42:21;10.77;;;4.65;;
75038;SDS011;63609;49.992;14.512;2023-03-11T21:44:48;13.68;;;4.25;;
75038;SDS011;63609;49.992;14.512;2023-03-11T21:47:17;12.07;;;4.70;;
75038;SDS011;63609;49.992;14.512;2023-03-11T21:49:45;9.40;;;4.55;;
75038;SDS011;63609;49.992;14.512;2023-03-11T21:52:12;11.10;;;4.32;;
75038;SDS011;63609;49.992;14.512;2023-03-11T21:54:39;8.85;;;4.63;;
75038;SDS011;63609;49.992;14.512;2023-03-11T21:57:06;5.47;;;3.35;;
75038;SDS011;63609;49.992;14.512;2023-03-11T21:59:33;8.65;;;4.25;;
75038;SDS011;63609;49.992;14.512;2023-03-11T22:02:00;8.75;;;4.10;;
75038;SDS011;63609;49.992;14.512;2023-03-11T22:04:29;7.35;;;3.85;;
75038;SDS011;63609;49.992;14.512;2023-03-11T22:06:56;9.65;;;4.85;;
75038;SDS011;63609;49.992;14.512;2023-03-11T22:09:24;12.23;;;5.38;;
75038;SDS011;63609;49.992;14.512;2023-03-11T22:11:52;13.63;;;5.97;;
75038;SDS011;63609;49.992;14.512;2023-03-11T22:14:22;13.13;;;5.38;;
75038;SDS011;63609;49.992;14.512;2023-03-11T22:16:49;11.38;;;5.68;;
75038;SDS011;63609;49.992;14.512;2023-03-11T22:19:16;11.60;;;5.53;;
75038;SDS011;63609;49.992;14.512;2023-03-11T22:21:44;14.40;;;6.18;;
75038;SDS011;63609;49.992;14.512;2023-03-11T22:24:11;12.65;;;5.82;;
75038;SDS011;63609;49.992;14.512;2023-03-11T22:26:38;12.68;;;5.10;;
75038;SDS011;63609;49.992;14.512;2023-03-11T22:29:05;10.20;;;4.68;;
75038;SDS011;63609;49.992;14.512;2023-03-11T22:31:34;7.47;;;4.00;;
75038;SDS011;63609;49.992;14.512;2023-03-11T22:34:01;9.95;;;4.97;;
75038;SDS011;63609;49.992;14.512;2023-03-11T22:36:28;9.88;;;3.67;;
75038;SDS011;63609;49.992;14.512;2023-03-11T22:38:55;6.45;;;3.42;;
75038;SDS011;63609;49.992;14.512;2023-03-11T22:41:22;9.93;;;5.10;;
75038;SDS011;63609;49.992;14.512;2023-03-11T22:46:16;10.25;;;5.03;;
75038;SDS011;63609;49.992;14.512;2023-03-11T22:51:11;9.95;;;4.43;;
75038;SDS011;63609;49.992;14.512;2023-03-11T22:53:38;9.60;;;4.43;;
75038;SDS011;63609;49.992;14.512;2023-03-11T22:58:34;7.00;;;3.33;;
75038;SDS011;63609;49.992;14.512;2023-03-11T23:01:04;8.57;;;4.45;;
75038;SDS011;63609;49.992;14.512;2023-03-11T23:03:32;8.95;;;4.53;;
75038;SDS011;63609;49.992;14.512;2023-03-11T23:06:01;11.57;;;5.10;;
75038;SDS011;63609;49.992;14.512;2023-03-11T23:08:30;9.95;;;4.70;;
75038;SDS011;63609;49.992;14.512;2023-03-11T23:11:00;9.00;;;4.38;;
75038;SDS011;63609;49.992;14.512;2023-03-11T23:13:28;9.95;;;4.78;;
75038;SDS011;63609;49.992;14.512;2023-03-11T23:16:01;11.48;;;4.88;;
75038;SDS011;63609;49.992;14.512;2023-03-11T23:18:35;8.68;;;4.57;;
75038;SDS011;63609;49.992;14.512;2023-03-11T23:21:02;9.90;;;5.32;;
75038;SDS011;63609;49.992;14.512;2023-03-11T23:23:29;11.02;;;4.70;;
75038;SDS011;63609;49.992;14.512;2023-03-11T23:25:57;11.20;;;5.22;;
75038;SDS011;63609;49.992;14.512;2023-03-11T23:28:25;8.45;;;4.38;;
75038;SDS011;63609;49.992;14.512;2023-03-11T23:30:52;14.70;;;4.30;;
75038;SDS011;63609;49.992;14.512;2023-03-11T23:33:19;5.43;;;3.28;;
75038;SDS011;63609;49.992;14.512;2023-03-11T23:38:12;5.65;;;3.15;;
75038;SDS011;63609;49.992;14.512;2023-03-11T23:40:39;7.45;;;3.78;;
75038;SDS011;63609;49.992;14.512;2023-03-11T23:43:07;8.38;;;4.32;;
75038;SDS011;63609;49.992;14.512;2023-03-11T23:45:33;7.32;;;3.40;;
75038;SDS011;63609;49.992;14.512;2023-03-11T23:48:00;8.82;;;3.45;;
75038;SDS011;63609;49.992;14.512;2023-03-11T23:50:27;11.38;;;3.10;;
75038;SDS011;63609;49.992;14.512;2023-03-11T23:55:21;8.90;;;4.40;;
75038;SDS011;63609;49.992;14.512;2023-03-11T23:57:51;5.70;;;3.30;;
